Barra de Macae, Brazil
Current Conditions -  °F | °C
As of 3:00 PM on Saturday 20 Dec 2014 (Local Time) from SBME Reporting Station
Broken Clouds Broken Clouds  
Wind Chill: 91°   Ceiling: 9000
Heat Index: 102°   Visibility: 6mi
Dew Point: 75°   Wind: 8mph
Humidity: 59%   Direction: 100°E
Pressure: 29.74"   Gusts: NA
Location:  22.29°S, 41.71°W
Report Text: SBME 201700Z 10007KT 9999 FEW030 BKN090 33/24 Q1007
Loading
Personal Weather Stations






























Interactive Weather Map New forecast layout! Learn more

10-Day Weather Forecast

Advertisements
Track Severe Weather on mobile